sensor_id;sensor_type;location;lat;lon;timestamp;temperature;humidity
5647;DHT22;2845;48.626;9.362;2022-10-03T00:09:18;10.60;99.90
5647;DHT22;2845;48.626;9.362;2022-10-03T00:12:02;10.60;99.90
5647;DHT22;2845;48.626;9.362;2022-10-03T00:14:49;11.30;99.90
5647;DHT22;2845;48.626;9.362;2022-10-03T00:17:36;10.50;99.90
5647;DHT22;2845;48.626;9.362;2022-10-03T00:20:30;10.40;99.90
5647;DHT22;2845;48.626;9.362;2022-10-03T00:23:26;10.40;99.90
5647;DHT22;2845;48.626;9.362;2022-10-03T00:26:12;10.70;99.90
5647;DHT22;2845;48.626;9.362;2022-10-03T00:29:23;13.00;99.90
5647;DHT22;2845;48.626;9.362;2022-10-03T00:32:11;10.50;99.90
5647;DHT22;2845;48.626;9.362;2022-10-03T00:34:59;12.30;99.90
5647;DHT22;2845;48.626;9.362;2022-10-03T00:37:59;10.70;99.90
5647;DHT22;2845;48.626;9.362;2022-10-03T00:40:56;10.20;99.90
5647;DHT22;2845;48.626;9.362;2022-10-03T00:47:11;10.20;99.90
5647;DHT22;2845;48.626;9.362;2022-10-03T00:53:21;10.30;99.90
5647;DHT22;2845;48.626;9.362;2022-10-03T00:56:10;10.40;99.90
5647;DHT22;2845;48.626;9.362;2022-10-03T00:58:58;11.20;99.90
5647;DHT22;2845;48.626;9.362;2022-10-03T01:01:44;10.40;99.90
5647;DHT22;2845;48.626;9.362;2022-10-03T01:04:38;11.20;99.90
5647;DHT22;2845;48.626;9.362;2022-10-03T01:07:44;11.20;99.90
5647;DHT22;2845;48.626;9.362;2022-10-03T01:10:42;10.60;99.90
5647;DHT22;2845;48.626;9.362;2022-10-03T01:13:30;10.60;99.90
5647;DHT22;2845;48.626;9.362;2022-10-03T01:16:20;10.60;99.90
5647;DHT22;2845;48.626;9.362;2022-10-03T01:19:02;10.60;99.90
5647;DHT22;2845;48.626;9.362;2022-10-03T01:21:59;10.70;99.90
5647;DHT22;2845;48.626;9.362;2022-10-03T01:24:51;10.70;99.90
5647;DHT22;2845;48.626;9.362;2022-10-03T01:27:42;10.80;99.90
5647;DHT22;2845;48.626;9.362;2022-10-03T01:30:52;10.80;99.90
5647;DHT22;2845;48.626;9.362;2022-10-03T01:33:32;10.90;99.90
5647;DHT22;2845;48.626;9.362;2022-10-03T01:36:14;10.90;99.90
5647;DHT22;2845;48.626;9.362;2022-10-03T01:39:04;12.50;99.90
5647;DHT22;2845;48.626;9.362;2022-10-03T01:41:51;10.90;99.90
5647;DHT22;2845;48.626;9.362;2022-10-03T01:44:56;11.00;99.90
5647;DHT22;2845;48.626;9.362;2022-10-03T01:47:56;11.00;99.90
5647;DHT22;2845;48.626;9.362;2022-10-03T01:50:36;11.00;99.90
5647;DHT22;2845;48.626;9.362;2022-10-03T01:53:30;11.10;99.90
5647;DHT22;2845;48.626;9.362;2022-10-03T01:56:14;11.10;99.90
5647;DHT22;2845;48.626;9.362;2022-10-03T01:59:02;11.10;99.90
5647;DHT22;2845;48.626;9.362;2022-10-03T02:01:52;11.10;99.90
5647;DHT22;2845;48.626;9.362;2022-10-03T02:04:38;11.10;99.90
5647;DHT22;2845;48.626;9.362;2022-10-03T02:07:34;11.60;99.90
5647;DHT22;2845;48.626;9.362;2022-10-03T02:19:54;10.90;99.90
5647;DHT22;2845;48.626;9.362;2022-10-03T02:22:39;11.20;99.90
5647;DHT22;2845;48.626;9.362;2022-10-03T02:25:23;10.90;99.90
5647;DHT22;2845;48.626;9.362;2022-10-03T02:47:18;10.80;99.90
5647;DHT22;2845;48.626;9.362;2022-10-03T02:50:30;12.70;99.90
5647;DHT22;2845;48.626;9.362;2022-10-03T02:53:27;10.80;99.90
5647;DHT22;2845;48.626;9.362;2022-10-03T02:59:42;10.90;99.90
5647;DHT22;2845;48.626;9.362;2022-10-03T03:02:44;10.80;99.90
5647;DHT22;2845;48.626;9.362;2022-10-03T03:05:55;10.90;99.90
5647;DHT22;2845;48.626;9.362;2022-10-03T03:11:55;10.90;99.90
5647;DHT22;2845;48.626;9.362;2022-10-03T03:18:09;10.90;99.90
5647;DHT22;2845;48.626;9.362;2022-10-03T03:21:00;10.90;99.90
5647;DHT22;2845;48.626;9.362;2022-10-03T03:23:54;10.90;99.90
5647;DHT22;2845;48.626;9.362;2022-10-03T03:26:42;13.50;99.90
5647;DHT22;2845;48.626;9.362;2022-10-03T03:29:56;11.50;99.90
5647;DHT22;2845;48.626;9.362;2022-10-03T03:32:42;10.70;99.90
5647;DHT22;2845;48.626;9.362;2022-10-03T03:35:39;10.70;99.90
5647;DHT22;2845;48.626;9.362;2022-10-03T03:38:39;10.70;99.90
5647;DHT22;2845;48.626;9.362;2022-10-03T03:41:39;10.10;99.90
5647;DHT22;2845;48.626;9.362;2022-10-03T03:48:08;10.50;99.90
5647;DHT22;2845;48.626;9.362;2022-10-03T03:51:00;10.40;99.90
5647;DHT22;2845;48.626;9.362;2022-10-03T04:00:35;10.20;99.90
5647;DHT22;2845;48.626;9.362;2022-10-03T04:06:55;10.10;99.90
5647;DHT22;2845;48.626;9.362;2022-10-03T04:09:45;10.10;99.90
5647;DHT22;2845;48.626;9.362;2022-10-03T04:12:40;10.10;99.90
5647;DHT22;2845;48.626;9.362;2022-10-03T04:15:55;11.00;99.90
5647;DHT22;2845;48.626;9.362;2022-10-03T04:21:42;10.10;99.90
5647;DHT22;2845;48.626;9.362;2022-10-03T04:24:36;10.20;99.90
5647;DHT22;2845;48.626;9.362;2022-10-03T04:27:36;10.20;99.90
5647;DHT22;2845;48.626;9.362;2022-10-03T04:30:27;10.20;99.90
5647;DHT22;2845;48.626;9.362;2022-10-03T04:33:30;10.30;99.90
5647;DHT22;2845;48.626;9.362;2022-10-03T04:36:24;10.20;99.90
5647;DHT22;2845;48.626;9.362;2022-10-03T04:39:30;10.30;99.90
5647;DHT22;2845;48.626;9.362;2022-10-03T04:42:12;10.50;99.90
5647;DHT22;2845;48.626;9.362;2022-10-03T04:45:25;10.40;99.90
5647;DHT22;2845;48.626;9.362;2022-10-03T04:48:08;10.40;99.90
5647;DHT22;2845;48.626;9.362;2022-10-03T04:50:52;13.10;99.90
5647;DHT22;2845;48.626;9.362;2022-10-03T04:53:56;10.40;99.90
5647;DHT22;2845;48.626;9.362;2022-10-03T04:56:39;10.40;99.90
5647;DHT22;2845;48.626;9.362;2022-10-03T04:59:27;10.40;99.90
5647;DHT22;2845;48.626;9.362;2022-10-03T05:02:18;10.50;99.90
5647;DHT22;2845;48.626;9.362;2022-10-03T05:05:11;10.50;99.90
5647;DHT22;2845;48.626;9.362;2022-10-03T05:11:21;10.50;99.90
5647;DHT22;2845;48.626;9.362;2022-10-03T05:14:03;10.50;99.90
5647;DHT22;2845;48.626;9.362;2022-10-03T05:17:05;10.60;99.90
5647;DHT22;2845;48.626;9.362;2022-10-03T05:20:00;10.50;99.90
5647;DHT22;2845;48.626;9.362;2022-10-03T05:25:59;10.40;99.90
5647;DHT22;2845;48.626;9.362;2022-10-03T05:29:01;10.40;99.90
5647;DHT22;2845;48.626;9.362;2022-10-03T05:31:45;10.40;99.90
5647;DHT22;2845;48.626;9.362;2022-10-03T05:34:59;11.00;99.90
5647;DHT22;2845;48.626;9.362;2022-10-03T05:37:57;10.30;99.90
5647;DHT22;2845;48.626;9.362;2022-10-03T05:40:42;10.30;99.90
5647;DHT22;2845;48.626;9.362;2022-10-03T05:50:34;10.20;99.90
5647;DHT22;2845;48.626;9.362;2022-10-03T05:53:57;10.30;99.90
5647;DHT22;2845;48.626;9.362;2022-10-03T06:00:19;10.30;99.90
5647;DHT22;2845;48.626;9.362;2022-10-03T06:03:23;10.40;99.90
5647;DHT22;2845;48.626;9.362;2022-10-03T06:06:18;10.40;99.90
5647;DHT22;2845;48.626;9.362;2022-10-03T06:09:07;10.50;99.90
5647;DHT22;2845;48.626;9.362;2022-10-03T06:12:01;10.50;99.90
5647;DHT22;2845;48.626;9.362;2022-10-03T06:14:50;11.90;99.90
5647;DHT22;2845;48.626;9.362;2022-10-03T06:17:50;10.60;99.90
5647;DHT22;2845;48.626;9.362;2022-10-03T06:31:30;10.70;99.90
5647;DHT22;2845;48.626;9.362;2022-10-03T06:42:04;10.90;99.90
5647;DHT22;2845;48.626;9.362;2022-10-03T06:44:52;10.90;99.90
5647;DHT22;2845;48.626;9.362;2022-10-03T06:50:50;14.10;99.90
5647;DHT22;2845;48.626;9.362;2022-10-03T06:53:36;10.90;99.90
5647;DHT22;2845;48.626;9.362;2022-10-03T06:56:40;11.50;99.90
5647;DHT22;2845;48.626;9.362;2022-10-03T07:15:31;11.40;99.90
5647;DHT22;2845;48.626;9.362;2022-10-03T07:18:44;11.60;99.90
5647;DHT22;2845;48.626;9.362;2022-10-03T07:21:42;12.00;99.90
5647;DHT22;2845;48.626;9.362;2022-10-03T07:24:43;11.80;99.90
5647;DHT22;2845;48.626;9.362;2022-10-03T07:27:46;11.80;99.90
5647;DHT22;2845;48.626;9.362;2022-10-03T07:30:50;11.90;99.90
5647;DHT22;2845;48.626;9.362;2022-10-03T07:37:22;11.90;99.90
5647;DHT22;2845;48.626;9.362;2022-10-03T07:40:38;11.90;99.90
5647;DHT22;2845;48.626;9.362;2022-10-03T07:53:58;12.20;99.90
5647;DHT22;2845;48.626;9.362;2022-10-03T07:57:19;12.30;99.90
5647;DHT22;2845;48.626;9.362;2022-10-03T08:00:12;12.40;99.90
5647;DHT22;2845;48.626;9.362;2022-10-03T08:06:10;12.60;99.90
5647;DHT22;2845;48.626;9.362;2022-10-03T08:12:18;13.00;99.90
5647;DHT22;2845;48.626;9.362;2022-10-03T08:15:37;13.20;99.90
5647;DHT22;2845;48.626;9.362;2022-10-03T08:18:31;13.30;99.90
5647;DHT22;2845;48.626;9.362;2022-10-03T08:21:46;13.60;99.90
5647;DHT22;2845;48.626;9.362;2022-10-03T08:34:32;13.50;99.90
5647;DHT22;2845;48.626;9.362;2022-10-03T08:47:07;13.60;99.90
5647;DHT22;2845;48.626;9.362;2022-10-03T08:56:26;13.80;99.90
5647;DHT22;2845;48.626;9.362;2022-10-03T08:59:14;13.60;99.90
5647;DHT22;2845;48.626;9.362;2022-10-03T09:08:39;13.20;99.90
5647;DHT22;2845;48.626;9.362;2022-10-03T09:11:47;13.10;99.90
5647;DHT22;2845;48.626;9.362;2022-10-03T09:14:49;13.00;99.90
5647;DHT22;2845;48.626;9.362;2022-10-03T09:17:46;13.10;99.90
5647;DHT22;2845;48.626;9.362;2022-10-03T09:24:24;13.10;99.90
5647;DHT22;2845;48.626;9.362;2022-10-03T09:27:20;13.00;99.90
5647;DHT22;2845;48.626;9.362;2022-10-03T09:42:54;13.30;99.90
5647;DHT22;2845;48.626;9.362;2022-10-03T09:46:11;13.90;99.90
5647;DHT22;2845;48.626;9.362;2022-10-03T09:52:28;14.70;99.90
5647;DHT22;2845;48.626;9.362;2022-10-03T09:55:29;15.00;99.70
5647;DHT22;2845;48.626;9.362;2022-10-03T09:58:39;15.10;99.20
5647;DHT22;2845;48.626;9.362;2022-10-03T10:01:32;15.10;98.90
5647;DHT22;2845;48.626;9.362;2022-10-03T10:04:34;15.10;98.30
5647;DHT22;2845;48.626;9.362;2022-10-03T10:07:46;15.10;98.90
5647;DHT22;2845;48.626;9.362;2022-10-03T10:10:53;15.00;98.70
5647;DHT22;2845;48.626;9.362;2022-10-03T10:13:49;15.00;99.20
5647;DHT22;2845;48.626;9.362;2022-10-03T10:20:57;15.00;99.00
5647;DHT22;2845;48.626;9.362;2022-10-03T10:24:03;15.00;98.80
5647;DHT22;2845;48.626;9.362;2022-10-03T10:27:01;15.10;98.90
5647;DHT22;2845;48.626;9.362;2022-10-03T10:37:08;15.10;98.70
5647;DHT22;2845;48.626;9.362;2022-10-03T10:56:34;14.50;99.00
5647;DHT22;2845;48.626;9.362;2022-10-03T11:07:29;14.40;99.80
5647;DHT22;2845;48.626;9.362;2022-10-03T11:10:33;14.70;99.80
5647;DHT22;2845;48.626;9.362;2022-10-03T11:39:46;15.60;95.90
5647;DHT22;2845;48.626;9.362;2022-10-03T11:42:27;15.70;95.40
5647;DHT22;2845;48.626;9.362;2022-10-03T11:45:23;15.90;94.70
5647;DHT22;2845;48.626;9.362;2022-10-03T11:51:04;16.00;94.10
5647;DHT22;2845;48.626;9.362;2022-10-03T11:53:46;15.80;95.30
5647;DHT22;2845;48.626;9.362;2022-10-03T11:56:53;17.50;96.00
5647;DHT22;2845;48.626;9.362;2022-10-03T11:59:49;17.20;94.90
5647;DHT22;2845;48.626;9.362;2022-10-03T12:02:46;15.10;94.60
5647;DHT22;2845;48.626;9.362;2022-10-03T12:09:06;15.40;95.40
5647;DHT22;2845;48.626;9.362;2022-10-03T12:11:54;16.50;94.20
5647;DHT22;2845;48.626;9.362;2022-10-03T12:14:39;15.30;94.50
5647;DHT22;2845;48.626;9.362;2022-10-03T12:17:20;15.10;95.50
5647;DHT22;2845;48.626;9.362;2022-10-03T12:20:14;15.00;96.00
5647;DHT22;2845;48.626;9.362;2022-10-03T12:23:01;16.30;96.20
5647;DHT22;2845;48.626;9.362;2022-10-03T12:25:42;15.40;95.50
5647;DHT22;2845;48.626;9.362;2022-10-03T12:28:21;15.50;95.70
5647;DHT22;2845;48.626;9.362;2022-10-03T12:31:03;17.10;96.40
5647;DHT22;2845;48.626;9.362;2022-10-03T12:34:14;15.60;94.30
5647;DHT22;2845;48.626;9.362;2022-10-03T12:40:17;18.30;93.50
5647;DHT22;2845;48.626;9.362;2022-10-03T12:43:12;16.00;94.50
5647;DHT22;2845;48.626;9.362;2022-10-03T12:45:57;15.70;94.80
5647;DHT22;2845;48.626;9.362;2022-10-03T12:49:02;15.90;93.40
5647;DHT22;2845;48.626;9.362;2022-10-03T12:52:02;16.50;93.80
5647;DHT22;2845;48.626;9.362;2022-10-03T12:54:44;17.00;91.70
5647;DHT22;2845;48.626;9.362;2022-10-03T13:03:29;17.00;92.20
5647;DHT22;2845;48.626;9.362;2022-10-03T13:06:24;16.50;92.90
5647;DHT22;2845;48.626;9.362;2022-10-03T13:09:53;16.30;92.30
5647;DHT22;2845;48.626;9.362;2022-10-03T13:12:42;16.30;92.30
5647;DHT22;2845;48.626;9.362;2022-10-03T13:16:04;17.50;92.80
5647;DHT22;2845;48.626;9.362;2022-10-03T13:18:58;16.00;92.40
5647;DHT22;2845;48.626;9.362;2022-10-03T13:22:00;15.80;93.80
5647;DHT22;2845;48.626;9.362;2022-10-03T13:24:41;15.60;93.30
5647;DHT22;2845;48.626;9.362;2022-10-03T13:27:37;15.40;94.20
5647;DHT22;2845;48.626;9.362;2022-10-03T13:30:20;16.20;93.70
5647;DHT22;2845;48.626;9.362;2022-10-03T13:33:02;15.30;94.00
5647;DHT22;2845;48.626;9.362;2022-10-03T13:35:42;16.90;93.70
5647;DHT22;2845;48.626;9.362;2022-10-03T13:45:02;14.70;94.60
5647;DHT22;2845;48.626;9.362;2022-10-03T13:47:43;14.90;94.10
5647;DHT22;2845;48.626;9.362;2022-10-03T13:57:02;15.20;93.30
5647;DHT22;2845;48.626;9.362;2022-10-03T13:59:46;15.10;94.30
5647;DHT22;2845;48.626;9.362;2022-10-03T14:05:32;15.90;93.70
5647;DHT22;2845;48.626;9.362;2022-10-03T14:08:27;15.30;92.10
5647;DHT22;2845;48.626;9.362;2022-10-03T14:11:22;15.50;91.90
5647;DHT22;2845;48.626;9.362;2022-10-03T14:14:03;15.70;91.60
5647;DHT22;2845;48.626;9.362;2022-10-03T14:16:48;16.70;92.70
5647;DHT22;2845;48.626;9.362;2022-10-03T14:19:30;15.60;93.10
5647;DHT22;2845;48.626;9.362;2022-10-03T14:22:10;16.00;93.50
5647;DHT22;2845;48.626;9.362;2022-10-03T14:25:02;15.50;93.10
5647;DHT22;2845;48.626;9.362;2022-10-03T14:27:46;15.80;92.80
5647;DHT22;2845;48.626;9.362;2022-10-03T14:33:51;15.70;93.10
5647;DHT22;2845;48.626;9.362;2022-10-03T14:36:34;16.10;91.90
5647;DHT22;2845;48.626;9.362;2022-10-03T14:39:18;16.30;92.10
5647;DHT22;2845;48.626;9.362;2022-10-03T14:42:25;16.00;90.50
5647;DHT22;2845;48.626;9.362;2022-10-03T14:45:08;16.70;92.10
5647;DHT22;2845;48.626;9.362;2022-10-03T14:48:03;16.80;91.30
5647;DHT22;2845;48.626;9.362;2022-10-03T14:50:40;17.00;90.00
5647;DHT22;2845;48.626;9.362;2022-10-03T14:53:38;17.20;88.90
5647;DHT22;2845;48.626;9.362;2022-10-03T14:56:19;15.90;87.50
5647;DHT22;2845;48.626;9.362;2022-10-03T14:58:58;18.20;87.70
5647;DHT22;2845;48.626;9.362;2022-10-03T15:01:47;17.80;90.90
5647;DHT22;2845;48.626;9.362;2022-10-03T15:04:32;16.60;90.40
5647;DHT22;2845;48.626;9.362;2022-10-03T15:07:14;17.00;90.40
5647;DHT22;2845;48.626;9.362;2022-10-03T15:09:50;17.30;88.10
5647;DHT22;2845;48.626;9.362;2022-10-03T15:12:32;14.60;85.70
5647;DHT22;2845;48.626;9.362;2022-10-03T15:15:12;17.30;90.70
5647;DHT22;2845;48.626;9.362;2022-10-03T15:17:53;17.30;87.20
5647;DHT22;2845;48.626;9.362;2022-10-03T15:20:36;18.60;90.30
5647;DHT22;2845;48.626;9.362;2022-10-03T15:23:17;17.30;90.30
5647;DHT22;2845;48.626;9.362;2022-10-03T15:25:56;16.70;88.80
5647;DHT22;2845;48.626;9.362;2022-10-03T15:28:36;16.00;90.80
5647;DHT22;2845;48.626;9.362;2022-10-03T15:31:17;17.60;91.40
5647;DHT22;2845;48.626;9.362;2022-10-03T15:34:03;16.50;88.80
5647;DHT22;2845;48.626;9.362;2022-10-03T15:36:40;16.30;90.10
5647;DHT22;2845;48.626;9.362;2022-10-03T15:39:26;17.70;88.70
5647;DHT22;2845;48.626;9.362;2022-10-03T15:42:14;16.50;87.80
5647;DHT22;2845;48.626;9.362;2022-10-03T15:44:55;16.50;87.90
5647;DHT22;2845;48.626;9.362;2022-10-03T15:47:49;17.20;91.10
5647;DHT22;2845;48.626;9.362;2022-10-03T15:50:23;16.20;91.30
5647;DHT22;2845;48.626;9.362;2022-10-03T15:53:09;16.20;90.00
5647;DHT22;2845;48.626;9.362;2022-10-03T15:56:08;16.20;89.60
5647;DHT22;2845;48.626;9.362;2022-10-03T15:58:47;16.30;90.30
5647;DHT22;2845;48.626;9.362;2022-10-03T16:01:25;16.00;89.60
5647;DHT22;2845;48.626;9.362;2022-10-03T16:04:05;16.10;89.30
5647;DHT22;2845;48.626;9.362;2022-10-03T16:06:52;16.00;90.00
5647;DHT22;2845;48.626;9.362;2022-10-03T16:09:41;15.70;90.10
5647;DHT22;2845;48.626;9.362;2022-10-03T16:12:37;16.00;91.10
5647;DHT22;2845;48.626;9.362;2022-10-03T16:15:33;15.60;91.40
5647;DHT22;2845;48.626;9.362;2022-10-03T16:21:36;15.40;91.50
5647;DHT22;2845;48.626;9.362;2022-10-03T16:24:33;15.40;91.30
5647;DHT22;2845;48.626;9.362;2022-10-03T16:27:18;15.30;91.10
5647;DHT22;2845;48.626;9.362;2022-10-03T16:30:09;15.30;91.40
5647;DHT22;2845;48.626;9.362;2022-10-03T16:32:58;15.20;91.80
5647;DHT22;2845;48.626;9.362;2022-10-03T16:35:46;15.10;92.10
5647;DHT22;2845;48.626;9.362;2022-10-03T16:38:29;15.00;92.70
5647;DHT22;2845;48.626;9.362;2022-10-03T16:41:16;16.40;93.60
5647;DHT22;2845;48.626;9.362;2022-10-03T16:46:56;14.60;93.80
5647;DHT22;2845;48.626;9.362;2022-10-03T16:49:40;14.40;94.20
5647;DHT22;2845;48.626;9.362;2022-10-03T16:52:44;16.30;95.00
5647;DHT22;2845;48.626;9.362;2022-10-03T16:55:26;13.90;95.20
5647;DHT22;2845;48.626;9.362;2022-10-03T16:58:25;13.80;95.60
5647;DHT22;2845;48.626;9.362;2022-10-03T17:01:03;13.70;96.10
5647;DHT22;2845;48.626;9.362;2022-10-03T17:04:05;13.50;96.40
5647;DHT22;2845;48.626;9.362;2022-10-03T17:06:47;13.40;96.70
5647;DHT22;2845;48.626;9.362;2022-10-03T17:09:24;14.10;97.20
5647;DHT22;2845;48.626;9.362;2022-10-03T17:12:06;13.10;97.20
5647;DHT22;2845;48.626;9.362;2022-10-03T17:14:46;13.00;97.50
5647;DHT22;2845;48.626;9.362;2022-10-03T17:17:23;14.00;97.80
5647;DHT22;2845;48.626;9.362;2022-10-03T17:20:04;13.90;98.10
5647;DHT22;2845;48.626;9.362;2022-10-03T17:22:51;14.90;98.50
5647;DHT22;2845;48.626;9.362;2022-10-03T17:25:39;12.60;98.10
5647;DHT22;2845;48.626;9.362;2022-10-03T17:28:28;12.50;98.20
5647;DHT22;2845;48.626;9.362;2022-10-03T17:31:21;12.50;98.30
5647;DHT22;2845;48.626;9.362;2022-10-03T17:34:10;12.30;98.40
5647;DHT22;2845;48.626;9.362;2022-10-03T17:36:55;12.20;98.60
5647;DHT22;2845;48.626;9.362;2022-10-03T17:39:57;12.10;98.80
5647;DHT22;2845;48.626;9.362;2022-10-03T17:42:38;12.00;98.90
5647;DHT22;2845;48.626;9.362;2022-10-03T17:45:21;12.00;99.00
5647;DHT22;2845;48.626;9.362;2022-10-03T17:48:08;11.90;99.20
5647;DHT22;2845;48.626;9.362;2022-10-03T17:50:51;11.80;99.10
5647;DHT22;2845;48.626;9.362;2022-10-03T17:53:29;11.70;99.10
5647;DHT22;2845;48.626;9.362;2022-10-03T17:56:08;11.70;99.10
5647;DHT22;2845;48.626;9.362;2022-10-03T17:58:46;11.60;99.20
5647;DHT22;2845;48.626;9.362;2022-10-03T18:01:28;13.00;99.70
5647;DHT22;2845;48.626;9.362;2022-10-03T18:04:10;12.30;99.50
5647;DHT22;2845;48.626;9.362;2022-10-03T18:06:49;11.50;99.40
5647;DHT22;2845;48.626;9.362;2022-10-03T18:09:27;11.30;99.40
5647;DHT22;2845;48.626;9.362;2022-10-03T18:12:08;13.90;99.80
5647;DHT22;2845;48.626;9.362;2022-10-03T18:17:52;11.10;99.50
5647;DHT22;2845;48.626;9.362;2022-10-03T18:20:53;11.00;99.60
5647;DHT22;2845;48.626;9.362;2022-10-03T18:23:39;10.90;99.70
5647;DHT22;2845;48.626;9.362;2022-10-03T18:26:27;11.90;99.70
5647;DHT22;2845;48.626;9.362;2022-10-03T18:29:12;10.80;99.70
5647;DHT22;2845;48.626;9.362;2022-10-03T18:31:54;10.80;99.70
5647;DHT22;2845;48.626;9.362;2022-10-03T18:34:36;13.20;99.90
5647;DHT22;2845;48.626;9.362;2022-10-03T18:40:45;10.80;99.70
5647;DHT22;2845;48.626;9.362;2022-10-03T18:43:29;10.60;99.70
5647;DHT22;2845;48.626;9.362;2022-10-03T18:46:15;10.60;99.70
5647;DHT22;2845;48.626;9.362;2022-10-03T18:52:08;10.50;99.60
5647;DHT22;2845;48.626;9.362;2022-10-03T18:54:53;13.20;99.90
5647;DHT22;2845;48.626;9.362;2022-10-03T18:57:38;12.00;99.90
5647;DHT22;2845;48.626;9.362;2022-10-03T19:03:14;10.40;99.70
5647;DHT22;2845;48.626;9.362;2022-10-03T19:05:53;10.30;99.80
5647;DHT22;2845;48.626;9.362;2022-10-03T19:08:35;10.30;99.80
5647;DHT22;2845;48.626;9.362;2022-10-03T19:11:15;10.10;99.80
5647;DHT22;2845;48.626;9.362;2022-10-03T19:13:56;10.10;99.80
5647;DHT22;2845;48.626;9.362;2022-10-03T19:16:39;10.00;99.80
5647;DHT22;2845;48.626;9.362;2022-10-03T19:19:27;12.20;99.90
5647;DHT22;2845;48.626;9.362;2022-10-03T19:22:05;9.90;99.80
5647;DHT22;2845;48.626;9.362;2022-10-03T19:24:45;9.90;99.90
5647;DHT22;2845;48.626;9.362;2022-10-03T19:27:41;11.80;99.90
5647;DHT22;2845;48.626;9.362;2022-10-03T19:30:21;9.80;99.90
5647;DHT22;2845;48.626;9.362;2022-10-03T19:32:59;10.10;99.90
5647;DHT22;2845;48.626;9.362;2022-10-03T19:35:38;9.80;99.90
5647;DHT22;2845;48.626;9.362;2022-10-03T19:38:21;9.80;99.70
5647;DHT22;2845;48.626;9.362;2022-10-03T19:41:12;9.90;99.60
5647;DHT22;2845;48.626;9.362;2022-10-03T19:43:54;11.60;99.90
5647;DHT22;2845;48.626;9.362;2022-10-03T19:49:44;9.70;99.90
5647;DHT22;2845;48.626;9.362;2022-10-03T19:52:26;11.60;99.90
5647;DHT22;2845;48.626;9.362;2022-10-03T19:55:20;7.80;99.90
5647;DHT22;2845;48.626;9.362;2022-10-03T19:58:09;9.50;99.90
5647;DHT22;2845;48.626;9.362;2022-10-03T20:00:56;9.50;99.90
5647;DHT22;2845;48.626;9.362;2022-10-03T20:03:57;9.50;99.90
5647;DHT22;2845;48.626;9.362;2022-10-03T20:06:50;9.30;99.90
5647;DHT22;2845;48.626;9.362;2022-10-03T20:09:29;9.20;99.90
5647;DHT22;2845;48.626;9.362;2022-10-03T20:12:08;12.40;99.90
5647;DHT22;2845;48.626;9.362;2022-10-03T20:14:47;9.20;99.90
5647;DHT22;2845;48.626;9.362;2022-10-03T20:17:26;9.20;99.90
5647;DHT22;2845;48.626;9.362;2022-10-03T20:20:05;9.00;99.90
5647;DHT22;2845;48.626;9.362;2022-10-03T20:22:43;8.90;99.90
5647;DHT22;2845;48.626;9.362;2022-10-03T20:25:21;9.00;99.90
5647;DHT22;2845;48.626;9.362;2022-10-03T20:28:04;11.10;99.90
5647;DHT22;2845;48.626;9.362;2022-10-03T20:30:43;9.60;99.90
5647;DHT22;2845;48.626;9.362;2022-10-03T20:33:26;8.70;99.90
5647;DHT22;2845;48.626;9.362;2022-10-03T20:36:06;8.90;99.90
5647;DHT22;2845;48.626;9.362;2022-10-03T20:38:55;8.90;99.90
5647;DHT22;2845;48.626;9.362;2022-10-03T20:41:49;8.90;99.90
5647;DHT22;2845;48.626;9.362;2022-10-03T20:50:34;8.70;99.90
5647;DHT22;2845;48.626;9.362;2022-10-03T20:53:14;8.50;99.90
5647;DHT22;2845;48.626;9.362;2022-10-03T20:56:00;8.50;99.90
5647;DHT22;2845;48.626;9.362;2022-10-03T20:58:40;8.40;99.90
5647;DHT22;2845;48.626;9.362;2022-10-03T21:01:32;11.20;99.90
5647;DHT22;2845;48.626;9.362;2022-10-03T21:04:23;8.50;99.90
5647;DHT22;2845;48.626;9.362;2022-10-03T21:07:13;8.50;99.90
5647;DHT22;2845;48.626;9.362;2022-10-03T21:09:59;8.30;99.90
5647;DHT22;2845;48.626;9.362;2022-10-03T21:12:44;10.20;99.90
5647;DHT22;2845;48.626;9.362;2022-10-03T21:15:24;8.10;99.90
5647;DHT22;2845;48.626;9.362;2022-10-03T21:18:11;9.90;99.90
5647;DHT22;2845;48.626;9.362;2022-10-03T21:20:59;7.90;99.90
5647;DHT22;2845;48.626;9.362;2022-10-03T21:23:40;8.10;99.90
5647;DHT22;2845;48.626;9.362;2022-10-03T21:26:19;8.50;99.90
5647;DHT22;2845;48.626;9.362;2022-10-03T21:32:12;8.00;99.90
5647;DHT22;2845;48.626;9.362;2022-10-03T21:35:00;7.90;99.90
5647;DHT22;2845;48.626;9.362;2022-10-03T21:40:51;8.00;99.90
5647;DHT22;2845;48.626;9.362;2022-10-03T21:43:51;7.90;99.90
5647;DHT22;2845;48.626;9.362;2022-10-03T21:46:31;7.90;99.90
5647;DHT22;2845;48.626;9.362;2022-10-03T21:49:19;7.80;99.90
5647;DHT22;2845;48.626;9.362;2022-10-03T21:52:17;7.80;99.90
5647;DHT22;2845;48.626;9.362;2022-10-03T21:55:24;7.80;99.90
5647;DHT22;2845;48.626;9.362;2022-10-03T21:58:33;7.90;99.90
5647;DHT22;2845;48.626;9.362;2022-10-03T22:01:15;7.90;99.90
5647;DHT22;2845;48.626;9.362;2022-10-03T22:03:57;7.80;99.90
5647;DHT22;2845;48.626;9.362;2022-10-03T22:06:45;7.80;99.90
5647;DHT22;2845;48.626;9.362;2022-10-03T22:09:25;7.90;99.90
5647;DHT22;2845;48.626;9.362;2022-10-03T22:12:22;8.20;99.90
5647;DHT22;2845;48.626;9.362;2022-10-03T22:15:02;7.80;99.90
5647;DHT22;2845;48.626;9.362;2022-10-03T22:18:03;9.70;99.90
5647;DHT22;2845;48.626;9.362;2022-10-03T22:20:52;7.70;99.80
5647;DHT22;2845;48.626;9.362;2022-10-03T22:23:33;7.70;99.90
5647;DHT22;2845;48.626;9.362;2022-10-03T22:26:14;9.10;99.90
5647;DHT22;2845;48.626;9.362;2022-10-03T22:28:56;7.80;99.90
5647;DHT22;2845;48.626;9.362;2022-10-03T22:31:52;7.80;99.90
5647;DHT22;2845;48.626;9.362;2022-10-03T22:34:46;7.60;99.90
5647;DHT22;2845;48.626;9.362;2022-10-03T22:37:27;7.60;99.90
5647;DHT22;2845;48.626;9.362;2022-10-03T22:40:03;10.90;99.90
5647;DHT22;2845;48.626;9.362;2022-10-03T22:42:42;7.60;99.90
5647;DHT22;2845;48.626;9.362;2022-10-03T22:45:24;7.50;99.90
5647;DHT22;2845;48.626;9.362;2022-10-03T22:48:09;7.70;99.90
5647;DHT22;2845;48.626;9.362;2022-10-03T22:50:47;7.50;99.90
5647;DHT22;2845;48.626;9.362;2022-10-03T22:53:29;7.80;99.90
5647;DHT22;2845;48.626;9.362;2022-10-03T23:05:23;7.50;99.90
5647;DHT22;2845;48.626;9.362;2022-10-03T23:08:15;7.40;99.90
5647;DHT22;2845;48.626;9.362;2022-10-03T23:11:03;7.40;99.90
5647;DHT22;2845;48.626;9.362;2022-10-03T23:13:47;7.40;99.90
5647;DHT22;2845;48.626;9.362;2022-10-03T23:16:29;7.50;99.90
5647;DHT22;2845;48.626;9.362;2022-10-03T23:19:24;9.80;99.90
5647;DHT22;2845;48.626;9.362;2022-10-03T23:22:11;7.50;99.90
5647;DHT22;2845;48.626;9.362;2022-10-03T23:24:47;10.30;99.90
5647;DHT22;2845;48.626;9.362;2022-10-03T23:27:42;10.70;99.90
5647;DHT22;2845;48.626;9.362;2022-10-03T23:33:45;7.30;99.90
5647;DHT22;2845;48.626;9.362;2022-10-03T23:36:23;7.30;99.90
5647;DHT22;2845;48.626;9.362;2022-10-03T23:39:00;7.40;99.90
5647;DHT22;2845;48.626;9.362;2022-10-03T23:41:41;7.90;99.90
5647;DHT22;2845;48.626;9.362;2022-10-03T23:44:38;7.40;99.90
5647;DHT22;2845;48.626;9.362;2022-10-03T23:47:33;7.50;99.90
5647;DHT22;2845;48.626;9.362;2022-10-03T23:50:17;7.40;99.90
5647;DHT22;2845;48.626;9.362;2022-10-03T23:52:58;7.50;99.90
5647;DHT22;2845;48.626;9.362;2022-10-03T23:55:33;7.70;99.90
